Time;durP1;ratioP1;P1;durP2;ratioP2;P2;SDS_P1;SDS_P2;PMS_P1;PMS_P2;Temp;Humidity;BMP_temperature;BMP_pressure;BME280_temperature;BME280_humidity;BME280_pressure;Samples;Min_cycle;Max_cycle;Signal;HPM_P1;HPM_P2
2023/05/31 00:00:19;;;;;;;0.60;0.60;;;12.70;99.90;;;;;;5037516;28;20286;-83
2023/05/31 00:02:45;;;;;;;0.50;0.40;;;12.70;99.90;;;;;;5036971;28;20213;-81
2023/05/31 00:05:14;;;;;;;0.50;0.40;;;12.70;99.90;;;;;;5037180;28;20211;-83
2023/05/31 00:07:40;;;;;;;0.60;0.60;;;12.60;99.90;;;;;;5037056;28;20219;-83
2023/05/31 00:10:08;;;;;;;0.50;0.40;;;12.60;99.90;;;;;;5037036;28;20195;-82
2023/05/31 00:12:35;;;;;;;0.50;0.40;;;12.50;99.90;;;;;;5037021;28;20473;-83
2023/05/31 00:15:02;;;;;;;0.50;0.40;;;12.60;99.90;;;;;;5036591;28;20191;-83
2023/05/31 00:17:29;;;;;;;0.50;0.40;;;12.50;99.90;;;;;;5037511;28;20297;-83
2023/05/31 00:19:56;;;;;;;0.50;0.40;;;12.50;99.90;;;;;;5028375;28;20255;-83
2023/05/31 00:22:24;;;;;;;0.50;0.40;;;12.50;99.90;;;;;;5036810;28;20726;-82
2023/05/31 00:24:51;;;;;;;0.73;0.60;;;12.40;99.90;;;;;;5036478;28;20302;-83
2023/05/31 00:27:18;;;;;;;0.50;0.40;;;12.40;99.90;;;;;;5036896;28;20249;-83
2023/05/31 00:29:44;;;;;;;0.50;0.40;;;12.40;99.90;;;;;;5036677;28;20545;-83
2023/05/31 00:32:11;;;;;;;0.50;0.40;;;12.40;99.90;;;;;;5037168;28;20301;-81
2023/05/31 00:34:38;;;;;;;0.50;0.40;;;12.30;99.90;;;;;;5036423;28;20510;-83
2023/05/31 00:37:05;;;;;;;0.50;0.40;;;12.30;99.90;;;;;;5037385;28;20440;-83
2023/05/31 00:39:34;;;;;;;0.50;0.40;;;12.30;99.90;;;;;;5036760;28;20566;-83
2023/05/31 00:42:02;;;;;;;1.48;0.70;;;12.20;99.90;;;;;;5036729;28;20219;-83
2023/05/31 00:44:29;;;;;;;0.88;0.88;;;12.20;99.90;;;;;;5036046;28;20702;-83
2023/05/31 00:46:57;;;;;;;2.17;2.05;;;12.20;99.90;;;;;;5028743;28;20651;-83
2023/05/31 00:49:26;;;;;;;0.50;0.40;;;12.20;99.90;;;;;;5036223;28;20202;-83
2023/05/31 00:51:53;;;;;;;0.50;0.40;;;12.10;99.90;;;;;;5036518;28;20236;-83
2023/05/31 00:54:20;;;;;;;0.50;0.40;;;12.10;99.90;;;;;;5036282;28;20207;-83
2023/05/31 00:56:48;;;;;;;2.10;2.00;;;12.10;99.90;;;;;;5035876;28;20222;-83
2023/05/31 00:59:17;;;;;;;0.50;0.40;;;12.00;99.90;;;;;;5036068;28;20309;-83
2023/05/31 01:01:44;;;;;;;0.50;0.40;;;12.00;99.90;;;;;;5036139;28;20221;-83
2023/05/31 01:04:11;;;;;;;0.50;0.40;;;12.00;99.90;;;;;;5035993;28;20323;-83
2023/05/31 01:06:39;;;;;;;1.13;0.90;;;12.00;99.90;;;;;;5036299;28;20259;-83
2023/05/31 01:09:07;;;;;;;0.50;0.40;;;12.00;99.90;;;;;;5036318;28;20197;-83
2023/05/31 01:11:58;;;;;;;0.50;0.40;;;11.90;99.90;;;;;;5035417;28;20219;-82
2023/05/31 01:14:32;;;;;;;0.60;0.60;;;11.90;99.90;;;;;;5035977;28;20637;-82
2023/05/31 01:17:06;;;;;;;0.50;0.40;;;11.90;99.90;;;;;;5028620;28;20277;-83
2023/05/31 01:19:47;;;;;;;0.50;0.40;;;11.90;99.90;;;;;;5036293;28;20449;-83
2023/05/31 01:22:20;;;;;;;0.50;0.40;;;11.90;99.90;;;;;;5035963;28;20230;-83
2023/05/31 01:24:59;;;;;;;0.50;0.40;;;11.80;99.90;;;;;;5035261;28;20306;-83
2023/05/31 01:27:28;;;;;;;0.50;0.40;;;11.80;99.90;;;;;;5036259;28;20203;-83
2023/05/31 01:29:56;;;;;;;0.50;0.40;;;11.80;99.90;;;;;;5035903;28;20196;-83
2023/05/31 01:32:25;;;;;;;0.80;0.80;;;11.80;99.90;;;;;;5035994;28;20318;-83
2023/05/31 01:34:52;;;;;;;0.50;0.40;;;11.80;99.90;;;;;;5034684;28;20201;-82
2023/05/31 01:37:19;;;;;;;1.67;1.58;;;11.70;99.90;;;;;;5035853;28;20290;-82
2023/05/31 01:39:47;;;;;;;0.50;0.40;;;11.70;99.90;;;;;;5035388;28;20293;-82
2023/05/31 01:42:14;;;;;;;0.50;0.40;;;11.70;99.90;;;;;;5035933;28;20222;-83
2023/05/31 01:44:44;;;;;;;0.50;0.40;;;11.60;99.90;;;;;;5035224;28;20199;-83
2023/05/31 01:47:12;;;;;;;0.50;0.40;;;11.60;99.90;;;;;;5036397;28;20544;-83
2023/05/31 01:49:40;;;;;;;0.50;0.40;;;11.50;99.90;;;;;;5035381;28;20203;-83
2023/05/31 01:52:11;;;;;;;0.50;0.40;;;11.50;99.90;;;;;;5035715;28;20237;-83
2023/05/31 01:54:38;;;;;;;0.50;0.40;;;11.50;99.90;;;;;;5035275;28;20235;-83
2023/05/31 01:57:05;;;;;;;0.50;0.40;;;11.50;99.90;;;;;;5035742;28;20199;-83
2023/05/31 01:59:35;;;;;;;0.50;0.40;;;11.50;99.90;;;;;;5035340;28;20203;-83
2023/05/31 02:02:05;;;;;;;0.50;0.40;;;11.50;99.90;;;;;;5035658;28;20586;-83
2023/05/31 02:04:31;;;;;;;0.50;0.40;;;11.40;99.90;;;;;;5035128;28;20220;-82
2023/05/31 02:07:00;;;;;;;0.50;0.50;;;11.40;99.90;;;;;;5035463;28;20691;-83
2023/05/31 02:09:27;;;;;;;0.50;0.40;;;11.40;99.90;;;;;;5035126;28;20602;-83
2023/05/31 02:11:53;;;;;;;0.50;0.40;;;11.30;99.90;;;;;;5035833;28;20211;-83
2023/05/31 02:14:20;;;;;;;0.50;0.40;;;11.40;99.90;;;;;;5035834;28;20241;-83
2023/05/31 02:16:47;;;;;;;0.50;0.40;;;11.30;99.90;;;;;;5035458;28;20279;-83
2023/05/31 02:19:15;;;;;;;0.50;0.40;;;11.30;99.90;;;;;;5035597;28;20229;-82
2023/05/31 02:21:42;;;;;;;0.50;0.40;;;11.30;99.90;;;;;;5034941;28;20230;-82
2023/05/31 02:24:09;;;;;;;0.50;0.40;;;11.30;99.90;;;;;;5035350;28;20201;-83
2023/05/31 02:26:36;;;;;;;0.50;0.40;;;11.30;99.90;;;;;;5039482;28;20238;-83
2023/05/31 02:29:03;;;;;;;0.50;0.40;;;11.30;99.90;;;;;;5039542;28;20263;-83
2023/05/31 02:31:29;;;;;;;0.50;0.40;;;11.30;99.90;;;;;;5038776;28;20225;-83
2023/05/31 02:33:56;;;;;;;0.50;0.40;;;11.30;99.90;;;;;;5044691;28;20201;-82
2023/05/31 02:36:28;;;;;;;0.50;0.50;;;11.30;99.90;;;;;;5051725;28;20191;-82
2023/05/31 02:38:55;;;;;;;0.50;0.50;;;11.30;99.90;;;;;;5050445;28;20198;-83
2023/05/31 02:41:22;;;;;;;0.50;0.40;;;11.30;99.90;;;;;;5048907;28;20226;-83
2023/05/31 02:43:48;;;;;;;0.50;0.50;;;11.30;99.90;;;;;;5049284;28;20214;-83
2023/05/31 02:46:15;;;;;;;0.50;0.40;;;11.30;99.90;;;;;;5039059;28;20302;-83
2023/05/31 02:48:42;;;;;;;0.50;0.40;;;11.30;99.90;;;;;;5038873;28;20205;-83
2023/05/31 02:51:09;;;;;;;0.50;0.40;;;11.40;99.90;;;;;;5039315;28;20218;-83
2023/05/31 02:53:37;;;;;;;0.50;0.50;;;11.40;99.90;;;;;;5038788;28;20199;-83
2023/05/31 02:56:04;;;;;;;0.50;0.40;;;11.30;99.90;;;;;;5037985;28;20194;-83
2023/05/31 02:58:31;;;;;;;0.70;0.70;;;11.30;99.90;;;;;;5038324;28;20286;-82
2023/05/31 03:00:58;;;;;;;0.50;0.40;;;11.30;99.90;;;;;;5038245;28;20222;-82
2023/05/31 03:03:25;;;;;;;0.50;0.40;;;11.30;99.90;;;;;;5038510;28;20570;-83
2023/05/31 03:05:52;;;;;;;1.02;0.82;;;11.30;99.90;;;;;;5037987;28;20310;-83
2023/05/31 03:08:19;;;;;;;0.60;0.50;;;11.30;99.90;;;;;;5038821;28;20200;-85
2023/05/31 03:10:47;;;;;;;0.50;0.50;;;11.30;99.90;;;;;;5038238;28;20306;-85
2023/05/31 03:13:14;;;;;;;0.50;0.40;;;11.30;99.90;;;;;;5038705;28;20294;-84
2023/05/31 03:15:41;;;;;;;0.50;0.40;;;11.30;99.90;;;;;;5038291;28;20294;-83
2023/05/31 03:18:08;;;;;;;0.50;0.40;;;11.30;99.90;;;;;;5041247;28;20222;-83
2023/05/31 03:20:35;;;;;;;0.50;0.40;;;11.30;99.90;;;;;;5039275;28;20249;-83
2023/05/31 03:23:02;;;;;;;0.50;0.40;;;11.30;99.90;;;;;;5041792;28;20207;-83
2023/05/31 03:25:29;;;;;;;0.50;0.40;;;11.20;99.90;;;;;;5043133;28;20288;-83
2023/05/31 03:27:58;;;;;;;0.60;0.40;;;11.20;99.90;;;;;;5042050;28;20282;-83
2023/05/31 03:30:25;;;;;;;0.50;0.50;;;11.20;99.90;;;;;;5041199;28;20199;-83
2023/05/31 03:32:51;;;;;;;0.50;0.40;;;11.20;99.90;;;;;;5041509;28;20207;-84
2023/05/31 03:35:18;;;;;;;0.50;0.40;;;11.20;99.90;;;;;;5040330;28;20223;-82
2023/05/31 03:37:45;;;;;;;0.50;0.40;;;11.20;99.90;;;;;;5041728;28;20550;-83
2023/05/31 03:40:12;;;;;;;1.27;1.17;;;11.10;99.90;;;;;;5041624;28;20196;-82
2023/05/31 03:42:39;;;;;;;0.50;0.40;;;11.20;99.90;;;;;;5041032;28;20200;-83
2023/05/31 03:45:08;;;;;;;0.50;0.40;;;11.20;99.90;;;;;;5040407;28;20230;-83
2023/05/31 03:47:35;;;;;;;0.50;0.40;;;11.20;99.90;;;;;;5040624;28;20206;-83
2023/05/31 03:50:03;;;;;;;0.50;0.40;;;11.20;99.90;;;;;;5041511;28;20195;-83
2023/05/31 03:52:30;;;;;;;0.50;0.40;;;11.30;99.90;;;;;;5041194;28;20591;-83
2023/05/31 03:54:56;;;;;;;0.50;0.40;;;11.30;99.90;;;;;;5032819;28;20270;-83
2023/05/31 03:57:23;;;;;;;0.50;0.40;;;11.20;99.90;;;;;;5041248;28;20192;-81
2023/05/31 03:59:50;;;;;;;0.50;0.40;;;11.20;99.90;;;;;;5041213;28;20290;-84
2023/05/31 04:02:18;;;;;;;0.60;0.60;;;11.30;99.90;;;;;;5041030;28;20315;-82
2023/05/31 04:04:45;;;;;;;0.50;0.40;;;11.30;99.90;;;;;;5039993;28;20322;-84
2023/05/31 04:07:12;;;;;;;0.50;0.40;;;11.30;99.90;;;;;;5039707;28;20234;-82
2023/05/31 04:09:39;;;;;;;0.50;0.40;;;11.30;99.90;;;;;;5039956;28;20286;-83
2023/05/31 04:12:06;;;;;;;1.15;1.13;;;11.30;99.90;;;;;;5039568;28;20219;-82
2023/05/31 04:14:33;;;;;;;0.73;0.70;;;11.40;99.90;;;;;;5037397;28;20245;-82
2023/05/31 04:17:00;;;;;;;2.47;2.28;;;11.40;99.90;;;;;;5039338;28;20705;-82
2023/05/31 04:19:29;;;;;;;0.50;0.40;;;11.40;99.90;;;;;;5039483;28;20195;-82
2023/05/31 04:21:55;;;;;;;0.50;0.40;;;11.40;99.90;;;;;;5038451;28;20254;-82
2023/05/31 04:24:22;;;;;;;0.50;0.40;;;11.40;99.90;;;;;;5039139;28;20230;-82
2023/05/31 04:26:49;;;;;;;0.50;0.40;;;11.40;99.90;;;;;;5038348;28;20698;-82
2023/05/31 04:29:17;;;;;;;0.50;0.40;;;11.50;99.90;;;;;;5038897;28;20294;-82
2023/05/31 04:31:44;;;;;;;1.15;0.93;;;11.60;99.90;;;;;;5038504;28;20226;-82
2023/05/31 04:34:17;;;;;;;4.03;1.65;;;11.60;99.90;;;;;;5039186;28;20274;-82
2023/05/31 04:36:48;;;;;;;0.50;0.43;;;11.70;99.90;;;;;;5037869;28;20231;-82
2023/05/31 04:39:15;;;;;;;5.60;2.00;;;11.70;99.90;;;;;;5038939;28;20675;-82
2023/05/31 04:41:42;;;;;;;1.48;1.33;;;11.60;99.90;;;;;;5038921;28;20469;-82
2023/05/31 04:44:09;;;;;;;0.50;0.40;;;11.60;99.90;;;;;;5037947;28;20343;-82
2023/05/31 04:46:36;;;;;;;1.75;0.82;;;11.60;99.90;;;;;;5038042;28;20301;-81
2023/05/31 04:49:04;;;;;;;0.50;0.40;;;11.70;99.90;;;;;;5039875;28;20226;-82
2023/05/31 04:51:32;;;;;;;1.67;1.15;;;11.70;99.90;;;;;;5038523;28;20230;-82
2023/05/31 04:54:00;;;;;;;0.50;0.40;;;11.70;99.90;;;;;;5031692;28;20205;-82
2023/05/31 04:56:27;;;;;;;2.20;1.25;;;11.70;99.90;;;;;;5039102;28;20643;-82
2023/05/31 04:58:55;;;;;;;2.17;1.38;;;11.80;99.90;;;;;;5038540;28;20195;-82
2023/05/31 05:01:22;;;;;;;0.60;0.60;;;11.90;99.90;;;;;;5039581;28;20265;-81
2023/05/31 05:03:51;;;;;;;1.75;1.65;;;11.90;99.90;;;;;;5039071;28;20203;-81
2023/05/31 05:06:18;;;;;;;4.20;3.35;;;12.00;99.90;;;;;;5037643;28;20218;-81
2023/05/31 05:08:46;;;;;;;1.40;1.15;;;12.00;99.90;;;;;;5038479;28;20200;-82
2023/05/31 05:11:15;;;;;;;0.50;0.40;;;12.10;99.90;;;;;;5034975;28;20218;-81
2023/05/31 05:13:42;;;;;;;0.50;0.40;;;12.20;99.90;;;;;;5037244;28;20222;-83
2023/05/31 05:16:09;;;;;;;2.13;2.03;;;12.20;99.90;;;;;;5036264;28;20221;-83
2023/05/31 05:18:36;;;;;;;0.80;0.70;;;12.30;99.90;;;;;;5036987;28;20452;-82
2023/05/31 05:21:04;;;;;;;1.65;1.55;;;12.40;99.90;;;;;;5036430;28;20476;-83
2023/05/31 05:23:31;;;;;;;2.60;2.40;;;12.40;99.90;;;;;;5037541;28;20615;-82
2023/05/31 05:25:58;;;;;;;11.43;1.33;;;12.50;99.90;;;;;;5038957;28;20474;-83
2023/05/31 05:28:28;;;;;;;0.97;0.87;;;12.70;99.90;;;;;;5036756;28;20465;-82
2023/05/31 05:30:55;;;;;;;1.02;1.02;;;12.70;99.90;;;;;;5037108;28;20967;-83
2023/05/31 05:33:22;;;;;;;1.60;1.50;;;12.80;99.90;;;;;;5037546;28;20207;-83
2023/05/31 05:35:49;;;;;;;0.95;0.95;;;12.90;99.90;;;;;;5035566;28;20191;-84
2023/05/31 05:38:16;;;;;;;5.03;2.13;;;12.90;99.90;;;;;;5037794;28;20234;-83
2023/05/31 05:40:42;;;;;;;3.17;2.83;;;13.10;99.90;;;;;;5036534;28;20520;-83
2023/05/31 05:43:09;;;;;;;3.40;3.10;;;13.20;99.90;;;;;;5036673;28;20454;-83
2023/05/31 05:45:37;;;;;;;4.00;3.80;;;13.20;99.90;;;;;;5036462;28;20510;-83
2023/05/31 05:48:04;;;;;;;0.50;0.43;;;13.30;99.90;;;;;;5036414;28;20477;-82
2023/05/31 05:50:31;;;;;;;1.90;0.97;;;13.50;99.90;;;;;;5036509;28;20534;-84
2023/05/31 05:52:58;;;;;;;0.93;0.87;;;13.60;99.90;;;;;;5028573;28;20450;-82
2023/05/31 05:55:25;;;;;;;2.20;2.00;;;13.80;99.90;;;;;;5036665;28;20444;-82
2023/05/31 05:57:52;;;;;;;1.70;1.53;;;13.90;99.90;;;;;;5034721;28;20870;-81
2023/05/31 06:00:21;;;;;;;1.23;1.17;;;14.10;99.90;;;;;;5034751;28;20438;-82
2023/05/31 06:02:49;;;;;;;1.70;1.60;;;14.20;99.90;;;;;;5035238;28;20438;-82
2023/05/31 06:05:16;;;;;;;5.33;2.33;;;14.30;99.90;;;;;;5035092;28;20561;-82
2023/05/31 06:07:44;;;;;;;1.63;1.53;;;14.30;99.90;;;;;;5035498;28;20482;-82
2023/05/31 06:10:11;;;;;;;16.03;2.97;;;14.30;99.90;;;;;;5034789;28;20446;-82
2023/05/31 06:12:38;;;;;;;1.37;1.27;;;14.40;99.90;;;;;;5036099;28;20540;-81
2023/05/31 06:15:05;;;;;;;0.50;0.50;;;14.40;99.90;;;;;;5035958;28;20810;-82
2023/05/31 06:17:32;;;;;;;2.87;1.17;;;14.60;99.90;;;;;;5035833;28;20446;-81
2023/05/31 06:20:00;;;;;;;1.10;1.10;;;14.70;99.90;;;;;;5027918;28;20469;-82
2023/05/31 06:22:27;;;;;;;3.23;2.60;;;14.90;99.90;;;;;;5035836;28;20837;-82
2023/05/31 06:24:57;;;;;;;2.37;1.10;;;15.10;99.90;;;;;;5035207;28;20437;-83
2023/05/31 06:27:24;;;;;;;1.37;1.27;;;15.30;99.90;;;;;;5035832;28;20548;-82
2023/05/31 06:29:55;;;;;;;1.70;1.60;;;15.70;99.90;;;;;;5035536;28;20504;-81
2023/05/31 06:32:21;;;;;;;0.50;0.40;;;16.10;99.90;;;;;;5036912;28;20466;-82
2023/05/31 06:34:48;;;;;;;8.87;3.43;;;16.40;99.90;;;;;;5035656;28;20825;-82
2023/05/31 06:37:16;;;;;;;1.27;1.17;;;16.70;99.90;;;;;;5035788;28;20438;-83
2023/05/31 06:39:43;;;;;;;0.63;0.63;;;17.50;99.90;;;;;;5034214;28;20446;-81
2023/05/31 06:42:11;;;;;;;17.03;2.50;;;18.40;99.90;;;;;;5033271;28;20497;-83
2023/05/31 06:44:38;;;;;;;0.50;0.40;;;18.70;99.90;;;;;;5036786;28;20481;-80
2023/05/31 06:47:05;;;;;;;2.30;1.77;;;19.00;99.90;;;;;;5035888;28;20482;-81
2023/05/31 06:49:32;;;;;;;1.77;1.33;;;19.70;99.90;;;;;;5036981;28;20950;-81
2023/05/31 06:51:59;;;;;;;0.50;0.30;;;19.90;99.90;;;;;;5028495;28;20461;-81
2023/05/31 06:54:27;;;;;;;1.00;1.00;;;20.50;99.90;;;;;;5036854;28;20541;-81
2023/05/31 06:56:54;;;;;;;1.43;1.33;;;21.40;99.90;;;;;;5036543;28;20431;-81
2023/05/31 06:59:21;;;;;;;0.60;0.50;;;21.80;99.90;;;;;;5036412;28;20437;-81
2023/05/31 07:01:48;;;;;;;0.50;0.30;;;22.20;99.90;;;;;;5036845;28;20909;-82
2023/05/31 07:04:15;;;;;;;0.50;0.30;;;22.50;99.90;;;;;;5036883;28;20474;-81
2023/05/31 07:06:42;;;;;;;1.83;0.60;;;23.10;99.90;;;;;;5036478;28;20465;-81
2023/05/31 07:09:09;;;;;;;0.90;0.40;;;23.40;99.90;;;;;;5036576;28;20469;-82
2023/05/31 07:11:39;;;;;;;4.10;1.03;;;23.80;99.90;;;;;;5039043;28;20985;-82
2023/05/31 07:14:06;;;;;;;0.83;0.83;;;24.40;99.90;;;;;;5040357;28;20513;-82
2023/05/31 07:16:33;;;;;;;10.90;1.27;;;24.90;97.90;;;;;;5039740;28;20508;-82
2023/05/31 07:18:59;;;;;;;1.50;1.40;;;25.40;93.80;;;;;;5031905;28;20524;-81
2023/05/31 07:21:26;;;;;;;0.50;0.40;;;25.40;91.10;;;;;;5039746;28;20552;-82
2023/05/31 07:23:53;;;;;;;0.50;0.30;;;25.30;90.20;;;;;;5039325;28;20505;-83
2023/05/31 07:26:20;;;;;;;0.83;0.70;;;25.10;91.50;;;;;;5040031;28;21026;-82
2023/05/31 07:28:48;;;;;;;0.70;0.50;;;25.40;90.00;;;;;;5039677;28;20598;-82
2023/05/31 07:31:16;;;;;;;0.50;0.40;;;25.70;88.40;;;;;;5040499;28;20501;-81
2023/05/31 07:33:42;;;;;;;0.50;0.30;;;26.00;88.80;;;;;;5039956;28;20434;-81
2023/05/31 07:36:09;;;;;;;0.50;0.37;;;26.10;85.50;;;;;;5039434;28;20522;-82
2023/05/31 07:38:36;;;;;;;1.07;1.07;;;25.90;80.80;;;;;;5038631;28;20477;-81
2023/05/31 07:41:03;;;;;;;0.53;0.43;;;25.30;80.70;;;;;;5038771;28;20462;-81
2023/05/31 07:43:32;;;;;;;0.50;0.37;;;24.70;81.80;;;;;;5039503;28;20533;-82
2023/05/31 07:46:00;;;;;;;0.60;0.40;;;24.50;88.30;;;;;;5038896;28;20466;-82
2023/05/31 07:48:28;;;;;;;0.50;0.30;;;24.90;85.20;;;;;;5038978;28;20509;-81
2023/05/31 07:50:55;;;;;;;7.60;2.40;;;25.10;86.80;;;;;;5038747;28;20462;-82
2023/05/31 07:53:22;;;;;;;0.93;0.70;;;25.40;86.20;;;;;;5039377;28;20525;-81
2023/05/31 07:55:49;;;;;;;0.50;0.40;;;26.00;81.10;;;;;;5038632;28;20452;-82
2023/05/31 07:58:15;;;;;;;0.93;0.93;;;26.50;84.70;;;;;;5038823;28;20478;-82
2023/05/31 08:00:42;;;;;;;1.00;0.73;;;27.20;80.30;;;;;;5039131;28;20493;-81
2023/05/31 08:03:10;;;;;;;1.73;1.43;;;26.90;75.70;;;;;;5039062;28;20454;-81
2023/05/31 08:05:37;;;;;;;1.50;1.40;;;26.80;77.00;;;;;;5038215;28;20466;-81
2023/05/31 08:08:05;;;;;;;0.50;0.30;;;26.60;75.60;;;;;;5039350;28;20470;-82
2023/05/31 08:10:32;;;;;;;0.93;0.93;;;26.80;81.70;;;;;;5038898;28;20470;-82
2023/05/31 08:12:59;;;;;;;2.30;1.13;;;26.30;73.40;;;;;;5038478;28;20513;-81
2023/05/31 08:15:26;;;;;;;1.07;0.67;;;25.80;76.70;;;;;;5040564;28;20537;-81
2023/05/31 08:17:53;;;;;;;5.57;0.87;;;26.10;79.20;;;;;;5038713;28;20553;-83
2023/05/31 08:20:21;;;;;;;0.50;0.30;;;26.80;77.90;;;;;;5038625;28;20446;-82
2023/05/31 08:22:48;;;;;;;0.60;0.50;;;27.00;75.40;;;;;;5038354;28;20537;-82
2023/05/31 08:25:16;;;;;;;0.50;0.30;;;27.70;76.30;;;;;;5038575;28;20480;-83
2023/05/31 08:27:43;;;;;;;0.50;0.30;;;28.30;74.80;;;;;;5038837;28;20500;-82
2023/05/31 08:30:11;;;;;;;0.80;0.80;;;28.80;71.70;;;;;;5038845;28;20450;-82
2023/05/31 08:32:40;;;;;;;0.50;0.30;;;28.80;69.40;;;;;;5038020;28;20446;-81
2023/05/31 08:35:08;;;;;;;0.50;0.47;;;29.30;70.40;;;;;;5038358;28;20446;-82
2023/05/31 08:37:38;;;;;;;0.50;0.30;;;29.50;68.00;;;;;;5037834;28;20521;-82
2023/05/31 08:40:06;;;;;;;0.50;0.30;;;30.30;69.90;;;;;;5030773;28;20433;-82
2023/05/31 08:42:39;;;;;;;1.93;0.90;;;30.70;66.10;;;;;;5038125;28;20756;-82
2023/05/31 08:45:07;;;;;;;0.50;0.30;;;30.70;63.00;;;;;;5030004;28;20450;-83
2023/05/31 08:47:40;;;;;;;1.67;0.90;;;30.80;62.40;;;;;;5038036;28;20444;-82
2023/05/31 08:50:08;;;;;;;2.03;1.53;;;31.40;63.40;;;;;;5029567;28;20521;-83
2023/05/31 08:52:37;;;;;;;0.50;0.40;;;31.80;59.90;;;;;;5037627;28;20504;-82
2023/05/31 08:55:04;;;;;;;0.70;0.57;;;31.80;59.60;;;;;;5029149;28;20442;-83
2023/05/31 08:57:33;;;;;;;0.50;0.30;;;31.80;59.10;;;;;;5038087;28;20474;-82
2023/05/31 09:00:08;;;;;;;1.10;1.00;;;32.50;58.00;;;;;;5037301;28;20541;-82
2023/05/31 09:02:35;;;;;;;0.50;0.30;;;32.40;54.40;;;;;;5037871;28;20472;-81
2023/05/31 09:05:04;;;;;;;0.80;0.80;;;31.80;56.80;;;;;;5037510;28;20442;-82
2023/05/31 09:07:31;;;;;;;0.50;0.30;;;31.80;58.00;;;;;;5038036;28;20438;-83
2023/05/31 09:10:02;;;;;;;0.50;0.30;;;32.50;58.40;;;;;;5037388;28;20454;-83
2023/05/31 09:12:30;;;;;;;0.93;0.60;;;33.00;55.90;;;;;;5037105;28;20470;-82
2023/05/31 09:14:57;;;;;;;1.23;1.13;;;32.80;53.30;;;;;;5036417;28;20446;-82
2023/05/31 09:17:24;;;;;;;0.60;0.60;;;32.30;54.40;;;;;;5037215;28;20480;-80
2023/05/31 09:19:53;;;;;;;0.50;0.30;;;32.30;51.30;;;;;;5036622;28;20478;-82
2023/05/31 09:22:22;;;;;;;0.50;0.30;;;32.00;52.80;;;;;;5036520;28;20554;-81
2023/05/31 09:24:55;;;;;;;1.60;1.50;;;32.20;53.30;;;;;;5044090;22;20512;-83
2023/05/31 09:27:24;;;;;;;1.00;0.60;;;32.10;52.40;;;;;;5029065;28;20447;-80
2023/05/31 09:29:54;;;;;;;0.83;0.83;;;31.90;53.20;;;;;;5040653;28;20446;-82
2023/05/31 09:32:22;;;;;;;0.50;0.40;;;31.90;53.40;;;;;;5041651;28;20544;-82
2023/05/31 09:34:49;;;;;;;0.50;0.30;;;32.50;54.80;;;;;;5041259;28;20552;-82
2023/05/31 09:37:23;;;;;;;0.53;0.50;;;33.20;54.40;;;;;;5041799;28;20479;-82
2023/05/31 09:39:56;;;;;;;0.80;0.60;;;33.90;52.10;;;;;;5038028;28;20461;-82
2023/05/31 09:42:26;;;;;;;1.97;1.57;;;33.90;48.70;;;;;;5040995;28;20435;-80
2023/05/31 09:44:53;;;;;;;0.70;0.50;;;33.60;51.10;;;;;;5040414;28;20465;-81
2023/05/31 09:47:25;;;;;;;0.50;0.30;;;32.50;50.00;;;;;;5041617;28;20437;-80
2023/05/31 09:49:54;;;;;;;0.50;0.30;;;31.90;53.00;;;;;;5041329;28;20456;-81
2023/05/31 09:52:27;;;;;;;0.50;0.30;;;32.30;52.80;;;;;;5041626;28;20482;-82
2023/05/31 09:54:56;;;;;;;0.50;0.40;;;33.20;51.90;;;;;;5040437;28;20462;-82
2023/05/31 09:57:40;;;;;;;0.50;0.30;;;33.80;49.20;;;;;;5041094;28;20529;-80
2023/05/31 10:00:12;;;;;;;0.50;0.30;;;33.90;48.30;;;;;;5041325;28;20438;-82
2023/05/31 10:02:42;;;;;;;0.50;0.30;;;33.20;45.40;;;;;;5041136;28;20457;-82
2023/05/31 10:05:10;;;;;;;0.50;0.30;;;33.00;49.10;;;;;;5040672;28;20459;-82
2023/05/31 10:07:37;;;;;;;0.50;0.40;;;33.80;50.20;;;;;;5041326;28;20435;-82
2023/05/31 10:10:05;;;;;;;0.93;0.87;;;33.90;47.50;;;;;;5041084;28;20946;-82
2023/05/31 10:12:40;;;;;;;0.50;0.40;;;34.30;48.90;;;;;;5041011;28;20502;-82
2023/05/31 10:15:10;;;;;;;2.30;1.13;;;34.80;47.80;;;;;;5040488;28;20468;-80
2023/05/31 10:17:42;;;;;;;0.40;0.30;;;34.20;46.30;;;;;;5041166;28;20585;-82
2023/05/31 10:20:12;;;;;;;0.40;0.30;;;34.50;45.90;;;;;;5033525;28;20471;-82
2023/05/31 10:22:41;;;;;;;0.50;0.40;;;34.90;45.30;;;;;;5041522;28;20522;-82
2023/05/31 10:25:12;;;;;;;0.70;0.50;;;33.90;42.60;;;;;;5040322;28;20454;-82
2023/05/31 10:27:43;;;;;;;0.50;0.30;;;33.50;45.60;;;;;;5041334;28;20806;-80
2023/05/31 10:30:12;;;;;;;1.03;0.67;;;33.70;46.50;;;;;;5040335;28;20534;-81
2023/05/31 10:32:44;;;;;;;0.70;0.70;;;33.60;44.00;;;;;;5040996;28;20474;-82
2023/05/31 10:35:11;;;;;;;0.70;0.50;;;32.90;43.60;;;;;;5041615;28;21030;-81
2023/05/31 10:37:40;;;;;;;0.50;0.30;;;32.20;44.20;;;;;;5040932;28;20474;-82
2023/05/31 10:40:13;;;;;;;0.70;0.50;;;31.90;45.80;;;;;;5039656;28;20517;-82
2023/05/31 10:42:50;;;;;;;1.67;0.50;;;32.60;47.80;;;;;;5041337;28;20442;-82
2023/05/31 10:45:21;;;;;;;0.67;0.67;;;33.50;47.20;;;;;;5033830;28;20460;-81
2023/05/31 10:47:55;;;;;;;0.60;0.57;;;34.10;46.50;;;;;;5044090;28;20447;-81
2023/05/31 10:50:22;;;;;;;0.50;0.30;;;33.30;44.00;;;;;;5044508;28;21050;-82
2023/05/31 10:52:50;;;;;;;0.80;0.70;;;33.60;47.00;;;;;;5044100;28;20448;-81
2023/05/31 10:55:18;;;;;;;0.50;0.30;;;33.10;45.50;;;;;;5044852;28;20544;-82
2023/05/31 10:57:51;;;;;;;0.50;0.50;;;32.60;45.50;;;;;;5043962;28;20944;-80
2023/05/31 11:00:20;;;;;;;0.50;0.30;;;32.80;45.90;;;;;;5043904;28;20442;-81
2023/05/31 11:02:49;;;;;;;0.50;0.37;;;32.40;45.80;;;;;;5043812;28;20453;-81
2023/05/31 11:05:21;;;;;;;0.80;0.73;;;32.80;46.70;;;;;;5043540;28;20536;-81
2023/05/31 11:07:48;;;;;;;0.90;0.90;;;32.40;45.80;;;;;;5043926;28;20534;-81
2023/05/31 11:10:26;;;;;;;0.50;0.30;;;32.60;48.10;;;;;;5043736;28;20510;-82
2023/05/31 11:12:57;;;;;;;0.50;0.40;;;33.00;46.70;;;;;;5043273;28;20452;-82
2023/05/31 11:15:38;;;;;;;1.53;0.60;;;32.60;46.10;;;;;;5043271;28;20463;-80
2023/05/31 11:18:08;;;;;;;0.50;0.40;;;33.20;47.50;;;;;;5044027;28;20480;-82
2023/05/31 11:20:35;;;;;;;1.30;1.20;;;33.70;47.60;;;;;;5044729;28;20447;-82
2023/05/31 11:23:29;;;;;;;0.40;0.30;;;34.00;45.30;;;;;;5043991;28;20446;-81
2023/05/31 11:26:10;;;;;;;0.50;0.30;;;34.50;46.50;;;;;;5044021;28;20437;-82
2023/05/31 11:28:58;;;;;;;0.40;0.30;;;35.10;46.30;;;;;;5043787;28;20442;-82
2023/05/31 11:32:01;;;;;;;0.40;0.30;;;35.70;44.30;;;;;;5039180;28;20435;-81
2023/05/31 11:34:30;;;;;;;0.40;0.30;;;35.70;45.50;;;;;;5037970;28;20462;-81
2023/05/31 11:36:58;;;;;;;0.50;0.50;;;36.00;44.70;;;;;;5044406;28;20450;-82
2023/05/31 11:39:26;;;;;;;0.50;0.40;;;36.20;43.80;;;;;;5043237;28;20511;-82
2023/05/31 11:41:54;;;;;;;0.40;0.30;;;35.40;42.50;;;;;;5044081;28;20454;-81
2023/05/31 11:44:29;;;;;;;0.40;0.30;;;34.90;44.60;;;;;;5042955;28;20499;-81
2023/05/31 11:47:01;;;;;;;0.40;0.30;;;35.10;45.60;;;;;;5043822;28;20442;-81
2023/05/31 11:49:28;;;;;;;0.50;0.40;;;35.50;46.00;;;;;;5043677;28;20450;-82
2023/05/31 11:51:56;;;;;;;0.40;0.30;;;35.50;43.60;;;;;;5043275;28;20518;-82
2023/05/31 11:54:27;;;;;;;0.50;0.30;;;35.70;45.20;;;;;;5043679;28;20499;-82
2023/05/31 11:56:58;;;;;;;0.40;0.40;;;35.50;43.40;;;;;;5043139;28;20435;-83
2023/05/31 11:59:27;;;;;;;0.40;0.30;;;35.50;44.30;;;;;;5043388;28;20474;-81
2023/05/31 12:01:59;;;;;;;0.40;0.30;;;35.70;45.10;;;;;;5043262;28;20445;-82
2023/05/31 12:04:33;;;;;;;0.50;0.30;;;36.10;43.60;;;;;;5043605;28;20466;-82
2023/05/31 12:07:00;;;;;;;0.60;0.60;;;35.70;41.90;;;;;;5043271;28;20868;-82
2023/05/31 12:09:28;;;;;;;0.50;0.30;;;35.20;42.80;;;;;;5044566;28;20475;-81
2023/05/31 12:11:56;;;;;;;0.50;0.50;;;34.30;43.40;;;;;;5042057;28;20441;-82
2023/05/31 12:14:24;;;;;;;0.40;0.30;;;34.20;45.10;;;;;;5042888;28;20463;-83
2023/05/31 12:16:53;;;;;;;0.50;0.30;;;34.10;44.50;;;;;;5041900;28;20557;-81
2023/05/31 12:19:20;;;;;;;1.33;1.23;;;34.30;45.70;;;;;;5042906;28;20537;-82
2023/05/31 12:21:47;;;;;;;0.40;0.30;;;34.20;44.10;;;;;;5043856;28;20474;-82
2023/05/31 12:24:15;;;;;;;0.50;0.40;;;34.60;45.10;;;;;;5042214;28;20537;-82
2023/05/31 12:26:44;;;;;;;0.40;0.30;;;35.20;47.00;;;;;;5042500;28;20860;-82
2023/05/31 12:29:12;;;;;;;0.40;0.30;;;35.30;44.00;;;;;;5042575;28;20466;-82
2023/05/31 12:31:39;;;;;;;0.40;0.30;;;35.40;44.60;;;;;;5042606;28;20791;-82
2023/05/31 12:34:11;;;;;;;0.40;0.30;;;35.70;44.90;;;;;;5042919;28;20470;-82
2023/05/31 12:36:48;;;;;;;0.40;0.30;;;36.10;46.10;;;;;;5042297;28;20443;-82
2023/05/31 12:39:18;;;;;;;0.40;0.30;;;36.50;43.80;;;;;;5042675;28;20546;-82
2023/05/31 12:41:46;;;;;;;1.70;0.67;;;36.60;43.40;;;;;;5043127;28;20442;-81
2023/05/31 12:44:15;;;;;;;0.40;0.30;;;36.10;43.50;;;;;;5042562;28;20492;-82
2023/05/31 12:46:44;;;;;;;0.40;0.37;;;36.10;42.50;;;;;;5043247;28;20830;-81
2023/05/31 12:49:20;;;;;;;0.40;0.30;;;36.10;44.70;;;;;;5042654;28;20442;-82
2023/05/31 12:51:47;;;;;;;1.43;0.63;;;35.50;43.50;;;;;;5042532;28;20447;-82